Time;durP1;ratioP1;P1;durP2;ratioP2;P2;SDS_P1;SDS_P2;PMS_P1;PMS_P2;Temp;Humidity;BMP_temperature;BMP_pressure;BME280_temperature;BME280_humidity;BME280_pressure;Samples;Min_cycle;Max_cycle;Signal;HPM_P1;HPM_P2
2022/01/02 00:00:46;;;;;;;0.75;0.75;;;;;;;11.70;75.46;101316.84;5068819;29;20044;-83
2022/01/02 00:03:23;;;;;;;1.25;1.02;;;;;;;11.69;75.35;101304.59;5084878;29;20064;-82
2022/01/02 00:06:03;;;;;;;0.77;0.77;;;;;;;11.72;75.13;101295.78;5097683;29;20041;-81
2022/01/02 00:08:46;;;;;;;0.30;0.30;;;;;;;11.68;75.18;101283.63;5090799;29;20032;-81
2022/01/02 00:11:23;;;;;;;0.40;0.40;;;;;;;11.69;75.45;101287.97;5063382;29;20115;-83
2022/01/02 00:14:02;;;;;;;0.80;0.80;;;;;;;11.62;75.67;101300.38;5069047;29;20151;-83
2022/01/02 00:16:42;;;;;;;0.70;0.70;;;;;;;11.64;75.43;101296.81;5097339;29;20042;-82
2022/01/02 00:19:30;;;;;;;0.73;0.73;;;;;;;11.61;75.60;101302.13;5049854;29;20123;-82
2022/01/02 00:22:12;;;;;;;0.73;0.73;;;;;;;11.60;75.51;101310.94;5086105;29;20032;-82
2022/01/02 00:24:46;;;;;;;1.10;1.10;;;;;;;11.62;75.41;101306.50;5069191;29;20051;-82
2022/01/02 00:27:20;;;;;;;0.32;0.32;;;;;;;11.57;75.81;101303.13;5061071;29;20036;-82
2022/01/02 00:30:03;;;;;;;1.48;1.38;;;;;;;11.44;76.20;101312.19;5053067;29;20111;-82
2022/01/02 00:32:35;;;;;;;2.17;1.15;;;;;;;11.50;75.61;101312.88;5068082;29;20096;-82
2022/01/02 00:35:12;;;;;;;1.15;1.15;;;;;;;11.61;75.28;101301.28;5072981;29;20055;-81
2022/01/02 00:37:43;;;;;;;0.75;0.75;;;;;;;11.59;75.39;101303.97;5069253;29;20043;-82
2022/01/02 00:40:17;;;;;;;0.93;0.93;;;;;;;11.62;75.34;101309.13;5084989;29;20040;-83
2022/01/02 00:43:00;;;;;;;0.50;0.50;;;;;;;11.60;75.38;101310.06;5076593;29;20032;-82
2022/01/02 00:45:40;;;;;;;1.02;1.00;;;;;;;11.60;75.68;101310.94;5048921;29;20043;-81
2022/01/02 00:48:24;;;;;;;0.65;0.65;;;;;;;11.58;75.21;101310.09;5078074;29;20040;-82
2022/01/02 00:51:13;;;;;;;0.50;0.50;;;;;;;11.61;75.47;101304.75;5064030;29;20044;-83
2022/01/02 00:53:50;;;;;;;0.80;0.80;;;;;;;11.51;75.69;101305.88;5079879;29;20491;-83
2022/01/02 00:56:26;;;;;;;1.77;1.65;;;;;;;11.45;76.23;101301.63;5085145;29;20043;-82
2022/01/02 00:59:07;;;;;;;7.65;1.10;;;;;;;11.47;75.92;101306.84;5066894;29;20040;-82
2022/01/02 01:01:44;;;;;;;1.23;1.20;;;;;;;11.49;76.01;101312.94;5099758;29;20082;-82
2022/01/02 01:04:24;;;;;;;0.50;0.50;;;;;;;11.53;75.50;101305.84;5097918;29;20131;-82
2022/01/02 01:07:13;;;;;;;;;;;;;;;11.46;76.23;101311.25;5084967;29;20411;-82
2022/01/02 01:09:46;;;;;;;0.30;0.30;;;;;;;11.48;75.95;101313.81;5092180;29;19919;-82
2022/01/02 01:12:19;;;;;;;0.43;0.43;;;;;;;11.46;75.48;101307.72;5084881;29;20044;-83
2022/01/02 01:14:51;;;;;;;0.60;0.60;;;;;;;11.49;75.38;101312.94;5062126;29;20077;-83
2022/01/02 01:17:24;;;;;;;0.50;0.50;;;;;;;11.49;75.30;101302.41;5087668;29;20039;-83
2022/01/02 01:19:55;;;;;;;0.30;0.30;;;;;;;11.43;75.81;101294.69;5095702;29;20040;-82
2022/01/02 01:22:25;;;;;;;1.88;0.75;;;;;;;11.47;75.17;101293.69;5061675;29;20036;-82
2022/01/02 01:24:57;;;;;;;0.65;0.65;;;;;;;11.40;76.05;101308.75;5096642;29;20048;-81
2022/01/02 01:27:28;;;;;;;0.43;0.43;;;;;;;11.34;75.97;101300.97;5087420;29;20041;-82
2022/01/02 01:29:58;;;;;;;0.57;0.57;;;;;;;11.41;75.55;101304.34;5096569;29;20507;-80
2022/01/02 01:32:29;;;;;;;0.80;0.80;;;;;;;11.40;75.40;101305.25;5079034;29;21115;-82
2022/01/02 01:35:02;;;;;;;0.30;0.30;;;;;;;11.42;75.58;101300.81;5073749;29;20132;-82
2022/01/02 01:37:40;;;;;;;0.40;0.40;;;;;;;11.40;75.85;101305.25;5080361;29;20032;-82
2022/01/02 01:40:14;;;;;;;0.50;0.50;;;;;;;11.35;75.71;101289.56;5081289;29;20044;-82
2022/01/02 01:43:02;;;;;;;0.40;0.40;;;;;;;11.33;75.77;101271.22;5084708;29;20036;-83
2022/01/02 01:45:33;;;;;;;0.60;0.60;;;;;;;11.24;76.41;101283.69;5080051;29;20059;-82
2022/01/02 01:48:06;;;;;;;0.60;0.60;;;;;;;11.31;75.82;101265.13;5055060;29;20039;-81
2022/01/02 01:50:47;;;;;;;0.82;0.82;;;;;;;11.31;75.72;101259.88;5053885;29;20123;-82
2022/01/02 01:53:18;;;;;;;0.70;0.70;;;;;;;11.37;75.85;101266.75;5080651;29;20040;-83
2022/01/02 01:55:48;;;;;;;0.30;0.30;;;;;;;11.36;75.79;101283.44;5065970;29;20060;-82
2022/01/02 01:58:27;;;;;;;1.05;0.80;;;;;;;11.34;76.12;101293.97;5058055;29;20057;-83
2022/01/02 02:00:57;;;;;;;1.20;0.52;;;;;;;11.39;75.90;101279.84;5052957;29;20055;-81
2022/01/02 02:03:36;;;;;;;0.85;0.85;;;;;;;11.34;76.08;101267.69;5052539;29;20084;-82
2022/01/02 02:06:12;;;;;;;0.40;0.40;;;;;;;11.43;75.52;101271.03;5066379;29;20033;-81
2022/01/02 02:08:43;;;;;;;0.45;0.45;;;;;;;11.36;76.03;101287.81;5078761;29;20047;-82
2022/01/02 02:11:14;;;;;;;1.15;1.15;;;;;;;11.41;75.90;101280.69;5073544;29;20036;-83
2022/01/02 02:13:45;;;;;;;0.88;0.82;;;;;;;11.41;75.66;101285.94;5069047;29;20032;-81
2022/01/02 02:16:15;;;;;;;1.40;1.30;;;;;;;11.40;75.95;101281.59;5073010;29;20036;-82
2022/01/02 02:18:46;;;;;;;0.90;0.90;;;;;;;11.43;75.80;101277.13;5064198;29;20044;-83
2022/01/02 02:21:27;;;;;;;0.43;0.43;;;;;;;11.43;75.86;101276.28;5057003;29;20088;-82
2022/01/02 02:23:58;;;;;;;1.17;1.08;;;;;;;11.47;75.67;101262.16;5081062;29;20121;-82
2022/01/02 02:26:30;;;;;;;0.77;0.77;;;;;;;11.47;75.28;101251.66;5078150;29;20041;-82
2022/01/02 02:29:05;;;;;;;0.50;0.50;;;;;;;11.39;76.12;101258.84;5069794;29;20478;-82
2022/01/02 02:31:38;;;;;;;0.70;0.70;;;;;;;11.41;76.01;101251.78;5075964;29;20372;-82
2022/01/02 02:34:09;;;;;;;2.80;1.40;;;;;;;11.43;76.09;101242.13;5075918;29;20044;-83
2022/01/02 02:36:39;;;;;;;0.60;0.60;;;;;;;11.47;75.60;101226.25;5083124;29;20042;-82
2022/01/02 02:39:10;;;;;;;0.90;0.90;;;;;;;11.42;75.57;101212.34;5070356;29;20044;-83
2022/01/02 02:41:42;;;;;;;0.60;0.60;;;;;;;11.48;75.53;101208.72;5102844;29;20039;-83
2022/01/02 02:44:38;;;;;;;0.43;0.43;;;;;;;11.47;75.48;101209.59;5054681;29;20041;-82
2022/01/02 02:50:00;;;;;;;0.70;0.70;;;;;;;11.42;76.05;101214.13;5094295;29;20052;-81
2022/01/02 02:52:40;;;;;;;0.70;0.70;;;;;;;11.41;75.72;101207.13;5093291;29;20119;-82
2022/01/02 02:55:11;;;;;;;1.08;1.08;;;;;;;11.23;76.57;101198.75;5072854;29;20045;-82
2022/01/02 02:57:42;;;;;;;0.90;0.90;;;;;;;11.34;76.39;101204.66;5077571;29;20059;-81
2022/01/02 03:00:15;;;;;;;0.35;0.35;;;;;;;11.27;76.40;101200.44;5077415;29;20100;-83
2022/01/02 03:02:48;;;;;;;0.57;0.57;;;;;;;11.37;76.13;101208.09;5096733;29;20111;-81
2022/01/02 03:05:21;;;;;;;0.40;0.40;;;;;;;11.26;76.51;101227.59;5065980;29;20059;-83
2022/01/02 03:07:55;;;;;;;1.25;1.15;;;;;;;11.26;76.91;101226.72;5074817;29;20028;-82
2022/01/02 03:10:26;;;;;;;1.40;1.17;;;;;;;11.29;76.37;101224.88;5089601;29;20816;-83
2022/01/02 03:12:56;;;;;;;0.40;0.40;;;;;;;11.36;76.35;101212.50;5079500;29;20039;-82
2022/01/02 03:15:27;;;;;;;1.35;1.33;;;;;;;11.37;76.03;101208.97;5052884;29;20046;-82
2022/01/02 03:17:58;;;;;;;1.70;1.55;;;;;;;11.34;75.93;101212.53;5099301;29;20626;-83
2022/01/02 03:20:28;;;;;;;0.60;0.60;;;;;;;11.27;76.39;101208.31;5084646;29;20036;-81
2022/01/02 03:22:59;;;;;;;1.73;1.08;;;;;;;11.29;76.67;101213.53;5098459;29;20040;-83
2022/01/02 03:25:33;;;;;;;1.00;1.00;;;;;;;11.30;76.50;101207.38;5055268;29;20048;-82
2022/01/02 03:28:14;;;;;;;;;;;;;;;11.31;76.83;101199.44;5087014;29;20115;-80
2022/01/02 03:30:44;;;;;;;0.85;0.85;;;;;;;11.31;76.58;101207.34;5063165;29;19986;-81
2022/01/02 03:33:15;;;;;;;1.95;1.73;;;;;;;11.30;76.35;101192.47;5109507;29;20032;-81
2022/01/02 03:35:53;;;;;;;0.55;0.55;;;;;;;11.39;76.51;101185.28;5067003;29;20055;-83
2022/01/02 03:38:24;;;;;;;0.40;0.40;;;;;;;11.38;76.44;101179.16;5073362;29;20039;-82
2022/01/02 03:40:57;;;;;;;1.00;1.00;;;;;;;11.39;76.13;101180.03;5086050;29;20051;-81
2022/01/02 03:43:27;;;;;;;0.70;0.70;;;;;;;11.37;76.33;101171.31;5057632;29;20036;-81
2022/01/02 03:46:05;;;;;;;0.80;0.80;;;;;;;11.36;76.49;101153.84;5062794;29;20594;-82
2022/01/02 03:48:36;;;;;;;1.00;1.00;;;;;;;11.37;76.70;101158.16;5067777;29;20736;-82
2022/01/02 03:51:17;;;;;;;;;;;;;;;;;;;;;
2022/01/02 03:53:51;;;;;;;0.40;0.40;;;;;;;11.51;76.39;101135.06;5099956;29;20044;-82
2022/01/02 03:56:21;;;;;;;0.68;0.68;;;;;;;11.42;76.50;101145.81;5081054;29;20054;-82
2022/01/02 03:59:00;;;;;;;2.13;2.00;;;;;;;11.40;76.27;101147.59;5079005;29;20071;-82
2022/01/02 04:01:30;;;;;;;0.40;0.40;;;;;;;11.40;76.15;101150.22;5082029;29;20426;-82
2022/01/02 04:04:08;;;;;;;3.25;1.35;;;;;;;11.43;76.16;101147.53;5095341;29;20079;-83
2022/01/02 04:06:39;;;;;;;2.17;1.63;;;;;;;11.43;76.18;101145.75;5095482;29;20111;-83
2022/01/02 04:09:13;;;;;;;1.10;0.90;;;;;;;11.41;76.49;101147.56;5050858;29;20088;-82
2022/01/02 04:11:44;;;;;;;1.55;1.45;;;;;;;11.37;76.77;101139.78;5081310;29;20091;-82
2022/01/02 04:14:22;;;;;;;3.03;1.85;;;;;;;11.41;76.36;101142.28;5054235;29;20044;-81
2022/01/02 04:16:52;;;;;;;0.90;0.90;;;;;;;11.38;76.39;101141.50;5069741;29;20031;-81
2022/01/02 04:19:25;;;;;;;1.23;0.45;;;;;;;11.30;77.13;101133.81;5066262;29;20136;-82
2022/01/02 04:22:04;;;;;;;0.82;0.82;;;;;;;11.36;77.01;101138.06;5083399;29;20043;-81
2022/01/02 04:24:34;;;;;;;0.95;0.95;;;;;;;11.27;76.94;101145.28;5047513;29;20040;-82
2022/01/02 04:27:05;;;;;;;1.90;1.77;;;;;;;11.36;76.67;101146.81;5070859;29;20091;-82
2022/01/02 04:29:46;;;;;;;0.77;0.77;;;;;;;11.39;76.86;101148.50;5075301;29;20049;-82
2022/01/02 04:32:24;;;;;;;0.90;0.90;;;;;;;11.41;76.60;101147.56;5085871;29;20382;-81
2022/01/02 04:34:57;;;;;;;0.40;0.40;;;;;;;11.39;76.52;101137.97;5084421;29;20296;-82
2022/01/02 04:37:28;;;;;;;0.75;0.75;;;;;;;11.33;76.79;101134.63;5071184;29;20055;-84
2022/01/02 04:39:59;;;;;;;0.93;0.93;;;;;;;11.40;76.49;101143.22;5055991;29;20064;-79
2022/01/02 04:42:32;;;;;;;1.05;0.93;;;;;;;11.42;76.71;101140.56;5052956;29;20046;-82
2022/01/02 04:45:05;;;;;;;0.55;0.55;;;;;;;11.43;76.60;101127.38;5083732;29;20127;-83
2022/01/02 04:47:43;;;;;;;0.60;0.60;;;;;;;11.44;76.71;101133.50;5058583;29;20175;-83
2022/01/02 04:50:13;;;;;;;0.73;0.50;;;;;;;11.37;76.92;101124.91;5077159;29;20131;-82
2022/01/02 04:52:44;;;;;;;0.40;0.40;;;;;;;11.33;77.13;101118.84;5068075;29;20036;-81
2022/01/02 04:55:15;;;;;;;0.98;0.98;;;;;;;11.29;77.18;101106.66;5075992;29;20075;-83
2022/01/02 04:57:45;;;;;;;1.05;1.05;;;;;;;11.31;77.00;101094.38;5055501;29;20063;-82
2022/01/02 05:00:19;;;;;;;1.58;1.27;;;;;;;11.30;77.14;101078.66;5086423;29;20051;-81
2022/01/02 05:02:52;;;;;;;1.60;1.50;;;;;;;11.33;77.57;101065.44;5080654;29;20036;-81
2022/01/02 05:05:23;;;;;;;0.73;0.73;;;;;;;11.29;77.67;101064.66;5058983;29;20128;-82
2022/01/02 05:07:53;;;;;;;0.90;0.90;;;;;;;11.28;77.50;101065.53;5089409;29;20036;-82
2022/01/02 05:10:24;;;;;;;0.65;0.65;;;;;;;11.33;77.63;101068.94;5057085;29;20297;-82
2022/01/02 05:12:54;;;;;;;1.45;1.35;;;;;;;11.39;77.45;101064.41;5067701;29;20032;-82
2022/01/02 05:15:25;;;;;;;0.68;0.68;;;;;;;11.36;77.33;101065.38;5078671;29;20056;-82
2022/01/02 05:17:56;;;;;;;0.55;0.55;;;;;;;11.39;77.13;101053.91;5099027;29;20040;-83
2022/01/02 05:20:26;;;;;;;0.60;0.60;;;;;;;11.36;77.31;101044.34;5082361;29;20051;-83
2022/01/02 05:22:57;;;;;;;0.70;0.70;;;;;;;11.40;77.36;101055.63;5068021;29;20059;-82
2022/01/02 05:25:30;;;;;;;1.33;1.25;;;;;;;11.40;77.02;101051.25;5069727;29;20071;-83
2022/01/02 05:28:01;;;;;;;0.60;0.60;;;;;;;11.40;77.36;101050.38;5065640;29;20384;-82
2022/01/02 05:30:32;;;;;;;0.50;0.50;;;;;;;11.40;77.42;101053.00;5059164;29;20044;-82
2022/01/02 05:33:05;;;;;;;1.60;1.50;;;;;;;11.41;76.86;101046.84;5082524;29;20032;-82
2022/01/02 05:35:36;;;;;;;0.57;0.57;;;;;;;11.44;76.86;101045.00;5068800;29;20111;-82
2022/01/02 05:38:07;;;;;;;1.80;1.67;;;;;;;11.45;77.04;101038.88;5068568;29;20698;-82
2022/01/02 05:40:40;;;;;;;1.13;1.02;;;;;;;11.38;77.46;101036.41;5077671;29;20049;-81
2022/01/02 05:43:11;;;;;;;0.50;0.50;;;;;;;11.38;77.53;101026.78;5078367;29;20032;-82
2022/01/02 05:45:44;;;;;;;1.55;1.42;;;;;;;11.55;77.40;101021.09;5072120;29;20657;-81
2022/01/02 05:48:17;;;;;;;0.80;0.80;;;;;;;11.45;77.08;101030.09;5067612;29;20087;-82
2022/01/02 05:50:48;;;;;;;1.70;1.58;;;;;;;11.58;76.87;101020.13;5081182;29;20593;-82
2022/01/02 05:53:37;;;;;;;7.03;2.22;;;;;;;11.43;77.40;101009.13;5093686;29;20032;-82
2022/01/02 05:56:08;;;;;;;1.55;1.45;;;;;;;11.45;77.56;100998.56;5079970;29;20036;-82
2022/01/02 05:58:39;;;;;;;0.70;0.70;;;;;;;11.20;79.96;100987.84;5078233;29;20065;-83
2022/01/02 06:01:12;;;;;;;0.47;0.47;;;;;;;11.04;79.70;100988.25;5085397;29;20907;-83
2022/01/02 06:03:46;;;;;;;0.90;0.90;;;;;;;11.23;78.37;100996.50;5091343;29;20040;-83
2022/01/02 06:06:17;;;;;;;1.45;1.05;;;;;;;11.30;78.33;101010.34;5088542;29;20214;-84
2022/01/02 06:08:50;;;;;;;0.88;0.88;;;;;;;11.26;78.31;101006.94;5081690;29;20180;-83
2022/01/02 06:11:21;;;;;;;0.98;0.77;;;;;;;11.29;78.51;101016.50;5069204;29;20550;-83
2022/01/02 06:13:51;;;;;;;1.17;1.05;;;;;;;11.28;78.47;100999.88;5045304;29;20044;-84
2022/01/02 06:16:27;;;;;;;1.80;1.70;;;;;;;11.27;78.62;100987.66;5101409;29;20103;-84
2022/01/02 06:19:00;;;;;;;0.60;0.60;;;;;;;11.26;78.21;100985.06;5068036;29;20048;-85
2022/01/02 06:21:33;;;;;;;1.55;1.27;;;;;;;11.28;78.58;100978.00;5083560;29;20052;-83
2022/01/02 06:24:12;;;;;;;0.50;0.50;;;;;;;11.23;78.55;100975.50;5080587;29;20154;-83
2022/01/02 06:26:43;;;;;;;0.40;0.40;;;;;;;11.22;78.87;100976.41;5079476;29;20423;-84
2022/01/02 06:29:18;;;;;;;0.57;0.57;;;;;;;11.18;79.18;100967.72;5089001;29;20043;-83
2022/01/02 06:31:52;;;;;;;0.68;0.68;;;;;;;11.20;78.80;100972.94;5077184;29;20033;-84
2022/01/02 06:34:34;;;;;;;0.75;0.75;;;;;;;11.21;79.14;100956.28;5063956;29;20045;-84
2022/01/02 06:37:09;;;;;;;0.70;0.70;;;;;;;11.26;79.15;100949.16;5084782;29;20462;-85
2022/01/02 06:40:00;;;;;;;1.30;1.20;;;;;;;11.26;78.69;100933.41;5078966;29;20040;-83
2022/01/02 06:42:30;;;;;;;1.38;1.27;;;;;;;11.29;79.00;100928.03;5064606;29;20032;-84
2022/01/02 06:45:01;;;;;;;0.80;0.75;;;;;;;11.21;79.31;100937.91;5073699;29;20040;-84
2022/01/02 06:47:35;;;;;;;1.17;0.60;;;;;;;11.15;79.64;100925.81;5047645;29;20035;-83
2022/01/02 06:50:21;;;;;;;;;;;;;;;;;;;;;
2022/01/02 06:52:51;;;;;;;0.55;0.55;;;;;;;11.15;79.28;100924.94;5068745;29;20043;-84
2022/01/02 06:55:22;;;;;;;0.60;0.60;;;;;;;11.07;79.23;100916.38;5079375;29;20464;-85
2022/01/02 06:57:53;;;;;;;1.48;1.23;;;;;;;11.16;79.29;100910.91;5056584;29;20024;-84
2022/01/02 07:00:36;;;;;;;0.68;0.68;;;;;;;11.25;78.78;100901.91;5061593;29;20084;-84
2022/01/02 07:03:10;;;;;;;0.32;0.32;;;;;;;11.24;78.78;100889.69;5089913;29;20060;-83
2022/01/02 07:05:41;;;;;;;0.35;0.35;;;;;;;11.26;79.03;100891.38;5062689;29;20071;-83
2022/01/02 07:08:14;;;;;;;10.48;0.70;;;;;;;11.24;78.66;100889.69;5068774;29;20032;-83
2022/01/02 07:10:47;;;;;;;0.40;0.40;;;;;;;11.22;78.77;100888.88;5080615;29;20047;-83
2022/01/02 07:13:20;;;;;;;1.17;1.15;;;;;;;11.25;78.30;100892.28;5077495;29;20033;-83
2022/01/02 07:15:50;;;;;;;0.35;0.35;;;;;;;11.18;78.31;100894.19;5071308;29;20114;-83
2022/01/02 07:18:21;;;;;;;0.40;0.40;;;;;;;11.13;78.41;100889.97;5085624;29;20692;-81
2022/01/02 07:20:54;;;;;;;0.35;0.35;;;;;;;11.18;78.59;100886.31;5056103;29;20192;-83
2022/01/02 07:23:24;;;;;;;0.68;0.68;;;;;;;11.15;78.40;100865.41;5067028;29;20051;-84
2022/01/02 07:25:57;;;;;;;0.35;0.35;;;;;;;11.23;77.92;100845.94;5060022;29;20040;-84
2022/01/02 07:28:34;;;;;;;0.63;0.63;;;;;;;11.25;78.40;100844.13;5083971;29;20143;-83
2022/01/02 07:31:07;;;;;;;1.27;0.93;;;;;;;11.22;78.36;100852.94;5097254;29;20020;-84
2022/01/02 07:33:37;;;;;;;5.20;1.63;;;;;;;11.23;78.03;100857.31;5089542;29;20063;-83
2022/01/02 07:36:13;;;;;;;0.60;0.60;;;;;;;11.19;77.96;100832.03;5081818;29;20479;-84
2022/01/02 07:38:44;;;;;;;0.35;0.35;;;;;;;11.23;78.30;100801.31;5077152;29;20067;-84
2022/01/02 07:41:20;;;;;;;0.75;0.70;;;;;;;11.25;77.24;100781.97;5066482;29;20085;-84
2022/01/02 07:44:00;;;;;;;0.60;0.60;;;;;;;11.29;77.49;100757.31;5083692;28;20170;-84
2022/01/02 07:46:31;;;;;;;0.95;0.95;;;;;;;11.18;76.79;100752.38;5083986;29;20561;-84
2022/01/02 07:49:02;;;;;;;0.45;0.45;;;;;;;11.13;77.22;100738.53;5069432;29;20036;-82
2022/01/02 07:51:35;;;;;;;0.60;0.60;;;;;;;11.16;77.57;100727.06;5071998;29;20032;-82
2022/01/02 07:54:06;;;;;;;0.30;0.30;;;;;;;11.15;76.15;100726.22;5082377;29;20444;-83
2022/01/02 07:56:36;;;;;;;1.00;0.77;;;;;;;11.17;75.77;100739.31;5059016;29;20039;-81
2022/01/02 07:59:08;;;;;;;0.50;0.50;;;;;;;11.09;75.34;100730.78;5050888;29;20036;-82
2022/01/02 08:01:38;;;;;;;0.50;0.50;;;;;;;11.16;76.42;100721.81;5067908;29;20036;-82
2022/01/02 08:04:12;;;;;;;0.45;0.45;;;;;;;11.15;76.05;100720.09;5066849;29;20044;-81
2022/01/02 08:06:46;;;;;;;0.50;0.50;;;;;;;11.15;75.51;100718.34;5070503;29;20125;-81
2022/01/02 08:09:24;;;;;;;0.68;0.68;;;;;;;11.10;75.70;100701.00;5068049;29;20068;-81
2022/01/02 08:11:57;;;;;;;0.40;0.40;;;;;;;11.14;74.85;100702.63;5081439;29;20127;-81
2022/01/02 08:14:27;;;;;;;0.30;0.30;;;;;;;11.14;75.13;100697.38;5068226;29;20055;-82
2022/01/02 08:17:00;;;;;;;0.50;0.50;;;;;;;11.16;74.25;100703.44;5076052;29;20028;-81
2022/01/02 08:19:31;;;;;;;0.60;0.60;;;;;;;11.11;73.93;100702.72;5095854;29;20096;-82
2022/01/02 08:22:01;;;;;;;0.30;0.30;;;;;;;11.16;73.65;100695.56;5093376;29;20111;-82
2022/01/02 08:24:34;;;;;;;0.43;0.43;;;;;;;11.12;74.43;100688.66;5058462;29;20044;-82
2022/01/02 08:27:07;;;;;;;0.30;0.30;;;;;;;11.13;73.79;100693.00;5072946;29;20076;-81
2022/01/02 08:29:38;;;;;;;1.85;0.68;;;;;;;11.11;73.14;100694.84;5091002;29;20416;-82
2022/01/02 08:32:08;;;;;;;0.50;0.50;;;;;;;11.08;73.66;100687.06;5069758;29;20042;-81
2022/01/02 08:34:39;;;;;;;0.70;0.70;;;;;;;11.11;73.01;100686.97;5082867;29;20249;-82
2022/01/02 08:37:11;;;;;;;0.40;0.40;;;;;;;11.11;74.09;100714.06;5067550;29;20100;-81
2022/01/02 08:39:45;;;;;;;1.13;1.02;;;;;;;11.13;72.28;100738.53;5072610;29;20768;-82
2022/01/02 08:42:16;;;;;;;0.30;0.30;;;;;;;11.17;73.54;100692.88;5078376;29;20135;-81
2022/01/02 08:44:47;;;;;;;0.95;0.95;;;;;;;11.16;72.61;100696.41;5044015;29;20122;-81
2022/01/02 08:47:17;;;;;;;0.30;0.30;;;;;;;11.21;72.65;100704.16;5045626;29;20416;-81
2022/01/02 08:49:48;;;;;;;0.47;0.47;;;;;;;11.19;72.69;100711.25;5068766;29;20063;-81
2022/01/02 08:52:19;;;;;;;0.30;0.30;;;;;;;11.12;73.31;100710.56;5066370;29;20087;-81
2022/01/02 08:54:51;;;;;;;;;;;;;;;11.15;72.98;100709.59;5050441;29;20099;-82
2022/01/02 08:57:22;;;;;;;0.47;0.47;;;;;;;11.12;72.24;100718.44;5079314;29;19919;-82
2022/01/02 08:59:53;;;;;;;0.50;0.50;;;;;;;11.20;72.98;100712.94;5091413;29;20060;-81
2022/01/02 09:02:23;;;;;;;0.60;0.60;;;;;;;11.23;73.84;100712.00;5072271;29;20070;-83
2022/01/02 09:04:54;;;;;;;0.40;0.40;;;;;;;11.16;72.90;100711.31;5079756;29;20044;-80
2022/01/02 09:07:24;;;;;;;0.57;0.57;;;;;;;11.18;73.00;100715.63;5075644;29;20133;-82
2022/01/02 09:09:55;;;;;;;0.60;0.52;;;;;;;11.18;72.47;100720.03;5080071;29;20078;-83
2022/01/02 09:12:25;;;;;;;0.30;0.30;;;;;;;11.22;72.36;100724.25;5067278;29;20039;-81
2022/01/02 09:14:56;;;;;;;0.43;0.43;;;;;;;11.28;71.98;100715.34;5094269;29;20075;-81
2022/01/02 09:17:27;;;;;;;0.43;0.43;;;;;;;11.28;73.08;100718.81;5065456;29;20126;-82
2022/01/02 09:19:57;;;;;;;0.40;0.40;;;;;;;11.24;72.43;100718.97;5076016;29;20127;-82
2022/01/02 09:22:28;;;;;;;0.40;0.40;;;;;;;11.23;72.38;100723.34;5083084;29;20036;-82
2022/01/02 09:24:59;;;;;;;0.35;0.35;;;;;;;11.23;72.46;100744.38;5071116;29;20051;-82
2022/01/02 09:27:29;;;;;;;0.57;0.57;;;;;;;11.23;71.85;100754.03;5081076;29;20036;-82
2022/01/02 09:30:02;;;;;;;0.30;0.30;;;;;;;11.26;72.86;100752.16;5090546;29;20107;-81
2022/01/02 09:32:34;;;;;;;0.40;0.40;;;;;;;11.27;71.95;100740.75;5068761;29;20032;-81
2022/01/02 09:35:08;;;;;;;0.75;0.70;;;;;;;11.41;71.28;100708.78;5072992;29;20051;-81
2022/01/02 09:37:39;;;;;;;0.50;0.50;;;;;;;11.60;72.01;100710.84;5081673;29;20035;-81
2022/01/02 09:40:12;;;;;;;0.40;0.40;;;;;;;11.65;72.43;100709.81;5079493;29;20076;-81
2022/01/02 09:43:03;;;;;;;1.20;1.15;;;;;;;11.83;71.21;100728.53;5045508;29;20032;-81
2022/01/02 09:45:41;;;;;;;0.68;0.68;;;;;;;11.90;71.21;100748.47;5074140;29;20491;-82
2022/01/02 09:48:12;;;;;;;0.60;0.60;;;;;;;11.96;70.86;100764.03;5078089;29;20036;-82
2022/01/02 09:50:43;;;;;;;0.70;0.70;;;;;;;11.98;71.31;100768.41;5093412;29;20040;-81
2022/01/02 09:53:16;;;;;;;2.58;1.58;;;;;;;12.05;71.17;100759.41;5067072;29;20396;-82
2022/01/02 09:55:46;;;;;;;;;;;;;;;12.08;70.77;100748.81;5051735;29;20043;-82
2022/01/02 09:58:19;;;;;;;0.43;0.43;;;;;;;12.08;71.73;100757.53;5078472;29;19915;-83
2022/01/02 10:00:52;;;;;;;0.40;0.40;;;;;;;12.08;73.11;100743.53;5072427;29;20032;-81
2022/01/02 10:03:23;;;;;;;5.93;0.73;;;;;;;12.09;72.18;100740.00;5058240;29;20029;-81
2022/01/02 10:05:57;;;;;;;0.40;0.40;;;;;;;12.11;71.99;100764.47;5038679;29;20429;-84
2022/01/02 10:08:30;;;;;;;0.57;0.57;;;;;;;12.11;72.02;100769.72;5072511;29;20037;-83
2022/01/02 10:11:04;;;;;;;;;;;;;;;12.14;70.81;100780.16;5075316;29;20574;-81
2022/01/02 10:13:38;;;;;;;;;;;;;;;12.24;69.96;100778.94;5061148;29;19915;-81
2022/01/02 10:16:25;;;;;;;1.05;1.05;;;;;;;12.27;70.16;100780.63;5063789;29;19911;-81
2022/01/02 10:18:56;;;;;;;0.73;0.73;;;;;;;12.34;69.18;100760.22;5079310;29;20036;-80
2022/01/02 10:21:27;;;;;;;0.32;0.32;;;;;;;12.39;68.83;100763.56;5061587;29;20372;-81
2022/01/02 10:24:28;;;;;;;1.10;0.80;;;;;;;12.43;68.44;100750.25;5076645;29;20059;-82
2022/01/02 10:27:15;;;;;;;0.75;0.75;;;;;;;12.46;69.04;100757.16;5064020;29;20092;-81
2022/01/02 10:29:47;;;;;;;1.65;1.15;;;;;;;12.49;69.20;100746.53;5095528;29;20055;-81
2022/01/02 10:32:38;;;;;;;0.70;0.70;;;;;;;12.48;69.49;100743.97;5081889;29;20131;-82
2022/01/02 10:35:21;;;;;;;0.60;0.60;;;;;;;12.51;69.41;100741.22;5076353;29;20423;-81
2022/01/02 10:37:56;;;;;;;0.40;0.40;;;;;;;12.51;69.26;100736.84;5050335;29;20040;-82
2022/01/02 10:40:40;;;;;;;1.00;0.88;;;;;;;12.52;69.37;100737.69;5078954;29;20065;-81
2022/01/02 10:43:23;;;;;;;3.30;1.67;;;;;;;12.54;69.73;100728.81;5080065;29;20036;-80
2022/01/02 10:45:56;;;;;;;0.63;0.63;;;;;;;12.53;69.17;100727.09;5081312;29;20052;-83
2022/01/02 10:48:33;;;;;;;0.40;0.40;;;;;;;12.54;69.69;100735.84;5071988;29;20020;-82
2022/01/02 10:51:14;;;;;;;0.75;0.75;;;;;;;12.51;70.66;100731.56;5087319;29;20032;-82
2022/01/02 10:53:56;;;;;;;0.57;0.57;;;;;;;12.52;70.52;100728.00;5051261;29;20029;-80
2022/01/02 10:56:28;;;;;;;0.65;0.65;;;;;;;12.58;70.80;100748.84;5082334;29;20115;-81
2022/01/02 10:58:58;;;;;;;1.95;1.10;;;;;;;12.64;70.62;100760.06;5072886;29;20048;-82
2022/01/02 11:01:31;;;;;;;4.45;2.03;;;;;;;12.59;70.57;100755.84;5081145;29;20179;-86
2022/01/02 11:04:03;;;;;;;0.30;0.30;;;;;;;12.56;70.38;100763.84;5081095;29;20043;-82
2022/01/02 11:07:01;;;;;;;0.35;0.35;;;;;;;12.54;70.83;100768.28;5081688;29;20032;-83
2022/01/02 11:09:51;;;;;;;;;;;;;;;;;;;;;
2022/01/02 11:12:23;;;;;;;0.45;0.45;;;;;;;12.55;70.91;100759.47;5082288;29;20061;-82
2022/01/02 11:14:54;;;;;;;0.93;0.93;;;;;;;12.52;71.31;100764.84;5097630;29;20052;-84
2022/01/02 11:17:25;;;;;;;1.02;1.02;;;;;;;12.53;71.18;100761.31;5082542;29;20124;-83
2022/01/02 11:19:56;;;;;;;0.50;0.50;;;;;;;12.51;70.83;100760.50;5066616;29;20155;-83
2022/01/02 11:22:54;;;;;;;;;;;;;;;;;;;;;
2022/01/02 11:25:25;;;;;;;1.17;1.05;;;;;;;12.49;71.47;100762.34;5080528;29;20051;-83
2022/01/02 11:28:34;;;;;;;0.95;0.93;;;;;;;12.48;71.73;100763.25;5100473;29;20032;-84
2022/01/02 11:31:09;;;;;;;0.65;0.65;;;;;;;12.46;71.52;100751.91;5079741;29;20076;-83
2022/01/02 11:33:49;;;;;;;1.17;1.17;;;;;;;12.47;71.25;100752.78;5080581;29;20079;-84
2022/01/02 11:36:35;;;;;;;0.43;0.43;;;;;;;12.43;71.41;100744.13;5068107;29;20514;-85
2022/01/02 11:39:11;;;;;;;0.35;0.35;;;;;;;12.46;71.80;100743.16;5083734;29;20546;-88
2022/01/02 11:41:56;;;;;;;1.33;1.23;;;;;;;12.49;71.77;100750.94;5066582;29;20108;-83
2022/01/02 11:44:47;;;;;;;0.30;0.30;;;;;;;12.45;71.50;100729.13;5050420;29;20041;-83
2022/01/02 11:47:41;;;;;;;0.57;0.52;;;;;;;12.44;72.10;100738.81;5076129;29;20039;-82
2022/01/02 11:50:30;;;;;;;2.50;1.20;;;;;;;12.44;72.40;100736.19;5059494;29;20032;-80
2022/01/02 11:53:23;;;;;;;;;;;;;;;;;;;;;
2022/01/02 11:55:55;;;;;;;0.50;0.50;;;;;;;12.39;72.30;100750.41;5078525;29;20048;-82
2022/01/02 11:58:43;;;;;;;0.35;0.35;;;;;;;12.37;72.33;100736.44;5069814;29;20080;-82
2022/01/02 12:01:54;;;;;;;0.70;0.70;;;;;;;12.35;72.56;100735.66;5076440;29;20047;-81
2022/01/02 12:05:13;;;;;;;1.67;1.55;;;;;;;12.32;72.28;100725.22;5076677;29;20055;-82
2022/01/02 12:07:55;;;;;;;0.65;0.65;;;;;;;12.33;72.44;100729.56;5086260;29;20036;-82
2022/01/02 12:10:35;;;;;;;0.88;0.88;;;;;;;12.34;72.14;100728.66;5089550;29;20044;-81
2022/01/02 12:13:16;;;;;;;0.90;0.90;;;;;;;12.31;72.33;100723.50;5078205;29;20028;-81